Terminal Aerodrome Forecast
Issued by NWS

Home | Current Version | Previous Version | Text Only | Print | Product List | Glossary On
Versions: 1 2 3 4 5 6 7 8 9 10 11 12 13 14
348
FTUS45 KABQ 281740
TAFTCC
TAF
KTCC 281740Z 2818/2918 20012KT P6SM SCT080 SCT140
     FM282100 16011KT P6SM VCTS OVC060CB
     FM290000 15009KT P6SM VCSH BKN060
     FM290400 16006KT P6SM BKN100=

USA.gov is the U.S. government's official web portal to all federal, state and local government web resources and services.